createdAt,value
2023-03-30T16:01:58.316Z,107.20
2023-03-30T16:03:40.913Z,99.40
2023-03-30T16:05:21.138Z,105.25
2023-03-30T16:06:53.158Z,86.60
2023-03-30T16:08:26.681Z,93.75
2023-03-30T16:09:59.052Z,84.75
2023-03-30T16:11:31.288Z,90.25
2023-03-30T16:13:03.575Z,92.50
2023-03-30T16:14:35.450Z,96.75
2023-03-30T16:16:08.167Z,96.00
2023-03-30T16:17:40.267Z,102.20
2023-03-30T16:19:13.000Z,103.00
2023-03-30T16:20:44.972Z,102.75
2023-03-30T16:22:16.998Z,86.00
2023-03-30T16:23:48.958Z,108.00
2023-03-30T16:25:24.236Z,91.75
2023-03-30T16:27:04.185Z,79.50
2023-03-30T16:28:36.144Z,81.00
2023-03-30T16:30:36.250Z,102.25
2023-03-30T16:32:08.527Z,97.20
2023-03-30T16:33:40.662Z,93.25
2023-03-30T16:35:13.165Z,88.75
2023-03-30T16:36:45.709Z,82.25
2023-03-30T16:38:18.134Z,77.25
2023-03-30T16:39:50.432Z,69.25
2023-03-30T16:41:23.313Z,74.25
2023-03-30T16:42:55.400Z,66.00
2023-03-30T16:44:27.657Z,66.25
2023-03-30T16:45:59.885Z,64.50
2023-03-30T16:47:32.390Z,78.50
2023-03-30T16:49:04.440Z,77.75
2023-03-30T16:51:07.172Z,80.25
2023-03-30T16:52:39.300Z,71.25
2023-03-30T16:54:23.024Z,79.00
2023-03-30T16:56:02.441Z,81.00
2023-03-30T16:57:34.724Z,70.50
2023-03-30T16:59:11.323Z,75.25
2023-03-30T17:00:49.045Z,68.50
2023-03-30T17:02:21.416Z,73.50
2023-03-30T17:03:53.508Z,78.75
2023-03-30T17:05:25.760Z,80.25
2023-03-30T17:06:57.975Z,80.75
2023-03-30T17:08:30.121Z,87.25
2023-03-30T17:10:26.991Z,87.50
2023-03-30T17:11:59.295Z,90.00
2023-03-30T17:13:32.294Z,94.25
2023-03-30T17:15:04.918Z,104.40
2023-03-30T17:16:37.474Z,103.80
2023-03-30T17:18:24.815Z,111.00
2023-03-30T17:19:57.054Z,131.25
2023-03-30T17:21:28.869Z,119.00
2023-03-30T17:23:00.898Z,122.50
2023-03-30T17:24:32.748Z,132.00
2023-03-30T17:26:04.988Z,141.50
2023-03-30T17:27:38.208Z,134.75
2023-03-30T17:29:10.441Z,136.00
2023-03-30T17:30:42.518Z,135.75
2023-03-30T17:32:14.930Z,142.75
2023-03-30T17:33:47.800Z,143.25
2023-03-30T17:35:19.794Z,143.75
2023-03-30T17:36:51.959Z,139.75
2023-03-30T17:38:24.350Z,160.00
2023-03-30T17:39:56.372Z,163.00
2023-03-30T17:41:28.683Z,165.25
2023-03-30T17:43:01.100Z,164.00
2023-03-30T17:44:34.103Z,169.50
2023-03-30T17:46:06.487Z,158.50
2023-03-30T17:47:39.080Z,154.25
2023-03-30T17:49:16.052Z,165.25
2023-03-30T17:50:50.021Z,170.00
2023-03-30T17:52:22.192Z,168.25
2023-03-30T17:53:54.109Z,183.25
2023-03-30T17:55:27.579Z,167.75
2023-03-30T17:56:59.508Z,160.50
2023-03-30T17:58:34.205Z,444.80
2023-03-30T18:00:23.558Z,297.25
2023-03-30T18:01:55.753Z,246.00
2023-03-30T18:03:29.512Z,231.25
2023-03-30T18:05:01.708Z,231.33
2023-03-30T18:06:33.722Z,240.33
2023-03-30T18:08:06.375Z,229.00
2023-03-30T18:09:38.268Z,201.00
2023-03-30T18:11:10.364Z,215.00
2023-03-30T18:12:42.254Z,193.00
2023-03-30T18:14:14.170Z,197.33
2023-03-30T18:15:48.553Z,205.67
2023-03-30T18:17:20.788Z,192.67
2023-03-30T18:18:52.682Z,206.67
2023-03-30T18:20:36.456Z,206.00
2023-03-30T18:22:08.351Z,190.75
2023-03-30T18:23:40.388Z,194.75
2023-03-30T18:25:19.095Z,206.25
2023-03-30T18:27:02.599Z,235.33
2023-03-30T18:28:35.137Z,273.75
2023-03-30T18:30:26.216Z,270.67
2023-03-30T18:31:58.131Z,202.00
2023-03-30T18:33:30.168Z,187.25
2023-03-30T18:35:02.250Z,176.25
2023-03-30T18:36:34.271Z,180.50
2023-03-30T18:38:06.374Z,167.50
2023-03-30T18:39:38.921Z,178.25
2023-03-30T18:41:13.541Z,161.25
2023-03-30T18:42:48.256Z,182.50
2023-03-30T18:44:20.643Z,170.75
2023-03-30T18:45:53.012Z,187.25
2023-03-30T18:47:26.447Z,164.75
2023-03-30T18:48:58.498Z,165.25
2023-03-30T18:50:40.594Z,162.75
2023-03-30T18:52:12.483Z,171.75
2023-03-30T18:53:44.826Z,208.33
2023-03-30T18:55:17.047Z,289.50
2023-03-30T18:56:49.850Z,265.00
2023-03-30T18:58:23.473Z,241.33
2023-03-30T18:59:56.837Z,218.67
2023-03-30T19:01:28.875Z,195.00
2023-03-30T19:03:01.617Z,198.75
2023-03-30T19:04:34.351Z,181.00
2023-03-30T19:06:10.126Z,174.75
2023-03-30T19:07:42.122Z,177.00
2023-03-30T19:09:14.421Z,164.25
2023-03-30T19:10:47.639Z,170.25
2023-03-30T19:12:19.709Z,162.25
2023-03-30T19:13:52.351Z,161.25
2023-03-30T19:15:34.724Z,167.00
2023-03-30T19:17:06.826Z,163.50
2023-03-30T19:18:39.160Z,151.75
2023-03-30T19:20:11.873Z,171.75
2023-03-30T19:21:46.274Z,153.00
2023-03-30T19:23:18.447Z,220.67
2023-03-30T19:24:50.831Z,219.00
2023-03-30T19:26:23.582Z,171.75
2023-03-30T19:28:03.390Z,186.25
2023-03-30T19:29:36.271Z,174.75
2023-03-30T19:31:16.547Z,162.00
2023-03-30T19:32:49.184Z,162.75
2023-03-30T19:34:21.156Z,160.50
2023-03-30T19:35:53.159Z,161.50
2023-03-30T19:37:25.950Z,160.25
2023-03-30T19:38:58.522Z,163.00
2023-03-30T19:40:30.527Z,155.25
2023-03-30T19:42:02.442Z,143.25
2023-03-30T19:43:34.439Z,162.50
2023-03-30T19:45:06.579Z,149.25
2023-03-30T19:46:38.946Z,159.75
2023-03-30T19:48:10.988Z,165.25
2023-03-30T19:49:43.101Z,161.50
2023-03-30T19:51:15.078Z,160.00
2023-03-30T19:52:48.863Z,273.00
2023-03-30T19:54:21.013Z,287.00
2023-03-30T19:55:52.967Z,215.33
2023-03-30T19:57:24.951Z,194.67
2023-03-30T19:58:58.898Z,200.67
2023-03-30T20:00:32.782Z,193.50
2023-03-30T20:02:04.967Z,191.50
2023-03-30T20:03:36.940Z,188.75
2023-03-30T20:05:10.460Z,181.75
2023-03-30T20:06:42.444Z,173.75
2023-03-30T20:08:23.345Z,173.25
2023-03-30T20:09:56.468Z,181.50
2023-03-30T20:11:28.444Z,168.50
2023-03-30T20:13:00.494Z,177.75
2023-03-30T20:14:32.746Z,163.75
2023-03-30T20:16:06.015Z,167.25
2023-03-30T20:17:38.553Z,152.00
2023-03-30T20:19:22.508Z,160.00
2023-03-30T20:21:03.563Z,165.25
2023-03-30T20:22:36.380Z,177.50
2023-03-30T20:24:08.704Z,166.50
2023-03-30T20:25:46.590Z,161.00
2023-03-30T20:27:18.517Z,177.50
2023-03-30T20:28:50.523Z,175.75
2023-03-30T20:30:22.430Z,178.75
2023-03-30T20:31:54.353Z,172.00
2023-03-30T20:33:27.497Z,162.75
2023-03-30T20:35:00.834Z,173.50
2023-03-30T20:36:32.783Z,162.50
2023-03-30T20:38:05.933Z,164.25
2023-03-30T20:39:37.843Z,158.00
2023-03-30T20:41:11.704Z,167.25
2023-03-30T20:42:48.205Z,170.75
2023-03-30T20:44:30.015Z,165.25
2023-03-30T20:46:09.700Z,156.00
2023-03-30T20:59:48.089Z,203.00
2023-03-30T21:01:28.385Z,215.33
2023-03-30T21:03:00.635Z,192.33
2023-03-30T21:04:33.952Z,176.00
2023-03-30T21:06:09.286Z,183.00
2023-03-30T21:07:42.437Z,192.00
2023-03-30T21:09:14.412Z,180.00
2023-03-30T21:10:46.412Z,175.50
2023-03-30T21:12:18.306Z,176.50
2023-03-30T21:13:54.665Z,183.75
2023-03-30T21:15:26.689Z,177.50
2023-03-30T21:16:58.639Z,178.50
2023-03-30T21:18:30.748Z,179.50
2023-03-30T21:20:02.708Z,182.50
2023-03-30T21:21:35.422Z,170.25
2023-03-30T21:23:07.336Z,172.75
2023-03-30T21:24:39.297Z,163.75
2023-03-30T21:26:11.774Z,172.00
2023-03-30T21:27:43.687Z,159.00
2023-03-30T21:29:15.687Z,159.50
2023-03-30T21:30:50.912Z,181.50
2023-03-30T21:32:22.850Z,164.50
2023-03-30T21:33:54.784Z,164.00
2023-03-30T21:35:26.687Z,173.25
2023-03-30T21:36:58.683Z,167.00
2023-03-30T21:38:30.846Z,163.00
2023-03-30T21:40:03.438Z,161.00
2023-03-30T21:41:35.399Z,165.50
2023-03-30T21:43:07.180Z,164.75
2023-03-30T21:44:39.103Z,154.50
2023-03-30T21:46:12.957Z,153.75
2023-03-30T21:47:44.883Z,162.25
2023-03-30T21:49:17.286Z,156.50
2023-03-30T21:50:49.482Z,162.00
2023-03-30T21:52:21.435Z,161.50
2023-03-30T21:53:53.955Z,149.50
2023-03-30T21:55:25.744Z,155.50
2023-03-30T21:56:57.670Z,143.50
2023-03-30T21:58:29.654Z,151.50
2023-03-30T22:00:01.523Z,159.25
2023-03-30T22:01:33.416Z,140.00
2023-03-30T22:03:05.712Z,149.50
2023-03-30T22:04:37.675Z,142.50
2023-03-30T22:06:10.556Z,145.00
2023-03-30T22:07:42.424Z,118.75
2023-03-30T22:09:14.392Z,135.75
2023-03-30T22:10:46.531Z,135.75
2023-03-30T22:12:18.371Z,114.25
2023-03-30T22:13:50.793Z,129.50
2023-03-30T22:15:22.625Z,127.75
2023-03-30T22:16:54.806Z,114.25
2023-03-30T22:18:27.019Z,129.75
2023-03-30T22:19:58.893Z,119.00
2023-03-30T22:21:34.609Z,117.75
2023-03-30T22:23:06.866Z,120.20
2023-03-30T22:24:38.860Z,104.20
2023-03-30T22:26:11.619Z,106.00
2023-03-30T22:27:45.204Z,98.20
2023-03-30T22:29:20.960Z,103.40
2023-03-30T22:30:52.974Z,107.80
2023-03-30T22:32:24.907Z,83.40
2023-03-30T22:33:57.032Z,177.00
